Time;durP1;ratioP1;P1;durP2;ratioP2;P2;SDS_P1;SDS_P2;PMS_P1;PMS_P2;Temp;Humidity;BMP_temperature;BMP_pressure;BME280_temperature;BME280_humidity;BME280_pressure;Samples;Min_cycle;Max_cycle;Signal;HPM_P1;HPM_P2
2021/10/12 03:43:56;;;;;;;6.30;2.10;;;21.90;49.70;;;;;;4586373;23;22923;-60
2021/10/12 03:46:21;;;;;;;7.18;2.25;;;21.90;49.90;;;;;;4969806;28;20416;-60
2021/10/12 03:48:47;;;;;;;25.17;3.17;;;21.90;49.60;;;;;;4953392;28;20435;-60
2021/10/12 03:51:14;;;;;;;8.85;2.25;;;21.90;50.20;;;;;;4973345;28;20411;-67
2021/10/12 03:53:40;;;;;;;4.68;2.00;;;21.90;49.40;;;;;;4973537;28;20776;-60
2021/10/12 03:56:06;;;;;;;6.13;2.00;;;21.90;49.40;;;;;;4974316;28;20388;-61
2021/10/12 03:58:32;;;;;;;10.20;2.33;;;21.90;49.30;;;;;;4973904;28;20396;-60
2021/10/12 04:00:57;;;;;;;7.30;2.17;;;21.90;48.90;;;;;;4973440;28;20403;-59
2021/10/12 04:03:23;;;;;;;8.05;2.10;;;21.90;49.40;;;;;;4956635;28;20396;-59
2021/10/12 04:05:49;;;;;;;5.23;1.80;;;21.80;49.00;;;;;;4973834;28;20929;-61
2021/10/12 04:08:14;;;;;;;5.90;2.00;;;21.80;48.90;;;;;;4974263;28;20420;-59
2021/10/12 04:10:40;;;;;;;5.70;2.33;;;21.70;49.00;;;;;;4974685;28;20397;-59
2021/10/12 04:13:06;;;;;;;4.93;2.05;;;21.70;49.10;;;;;;4974291;28;20403;-59
2021/10/12 04:15:33;;;;;;;6.90;2.20;;;21.70;49.50;;;;;;4974227;28;20740;-60
2021/10/12 04:17:59;;;;;;;6.68;2.33;;;21.70;48.70;;;;;;4974035;28;20396;-63
2021/10/12 04:20:27;;;;;;;3.97;2.58;;;21.70;48.40;;;;;;4974566;28;20455;-60
2021/10/12 04:22:54;;;;;;;5.65;2.53;;;21.70;48.20;;;;;;4957135;28;20407;-59
2021/10/12 04:25:20;;;;;;;3.50;1.60;;;21.70;48.10;;;;;;4956748;28;20971;-59
2021/10/12 04:27:46;;;;;;;4.63;2.10;;;21.60;48.90;;;;;;4973760;28;20507;-59
2021/10/12 04:30:12;;;;;;;4.13;2.05;;;21.70;49.10;;;;;;4973624;28;20442;-60
2021/10/12 04:32:38;;;;;;;5.35;2.10;;;21.70;50.20;;;;;;4964860;28;20410;-60
2021/10/12 04:35:05;;;;;;;7.20;2.22;;;21.70;50.40;;;;;;4963747;28;20397;-60
2021/10/12 04:37:30;;;;;;;5.88;2.08;;;21.80;50.30;;;;;;4979618;28;20399;-67
2021/10/12 04:39:56;;;;;;;4.70;2.20;;;21.80;50.10;;;;;;4975481;28;20397;-66
2021/10/12 04:42:22;;;;;;;5.80;1.88;;;21.80;50.10;;;;;;4978530;28;20483;-64
2021/10/12 04:44:50;;;;;;;7.50;2.20;;;21.80;50.30;;;;;;4975474;28;20420;-64
2021/10/12 04:47:18;;;;;;;7.10;2.35;;;21.80;50.20;;;;;;4974407;28;20412;-59
2021/10/12 04:49:44;;;;;;;9.02;2.22;;;21.90;49.40;;;;;;4973391;28;20912;-62
2021/10/12 04:52:10;;;;;;;7.68;2.25;;;21.90;50.70;;;;;;4959665;28;20476;-65
2021/10/12 04:54:35;;;;;;;5.50;2.43;;;21.90;50.70;;;;;;4954636;28;20503;-62
2021/10/12 04:57:01;;;;;;;7.93;2.30;;;21.90;50.50;;;;;;4954391;28;20481;-66
2021/10/12 04:59:27;;;;;;;6.00;2.20;;;21.90;50.20;;;;;;4953850;28;20410;-66
2021/10/12 05:01:52;;;;;;;8.13;2.27;;;21.90;49.80;;;;;;4953776;28;20398;-67
2021/10/12 05:04:18;;;;;;;5.60;2.03;;;21.80;49.70;;;;;;4954355;29;20785;-66
2021/10/12 05:06:43;;;;;;;5.90;2.50;;;21.80;49.30;;;;;;4954317;28;20421;-59
2021/10/12 05:09:09;;;;;;;7.13;2.65;;;21.80;49.20;;;;;;4954002;28;20492;-60
2021/10/12 05:11:35;;;;;;;5.20;2.20;;;21.70;48.90;;;;;;4954062;29;20928;-59
2021/10/12 05:14:00;;;;;;;5.30;2.45;;;21.70;48.70;;;;;;4953722;29;20426;-59
2021/10/12 05:16:28;;;;;;;6.23;2.07;;;21.70;48.70;;;;;;4954091;29;20394;-59
2021/10/12 05:18:57;;;;;;;4.68;2.10;;;21.60;48.40;;;;;;4936855;29;20413;-59
2021/10/12 05:21:23;;;;;;;3.63;2.00;;;21.60;48.50;;;;;;4953984;29;20492;-60
2021/10/12 05:23:49;;;;;;;5.07;1.90;;;21.60;49.00;;;;;;4953608;29;20547;-59
2021/10/12 05:26:14;;;;;;;3.40;2.10;;;21.60;48.40;;;;;;4953933;29;20430;-59
2021/10/12 05:28:40;;;;;;;5.23;2.10;;;21.60;48.30;;;;;;4953924;28;20426;-60
2021/10/12 05:31:06;;;;;;;3.97;2.00;;;21.60;48.20;;;;;;4953815;28;20758;-59
2021/10/12 05:33:32;;;;;;;3.65;2.22;;;21.60;48.20;;;;;;4953940;29;20493;-59
2021/10/12 05:36:00;;;;;;;2.67;1.80;;;21.60;48.20;;;;;;4953443;29;20436;-59
2021/10/12 05:38:26;;;;;;;3.47;1.90;;;21.60;48.10;;;;;;4953921;29;20441;-59
2021/10/12 05:40:52;;;;;;;2.88;2.25;;;21.60;48.10;;;;;;4953861;29;20856;-59
2021/10/12 05:43:18;;;;;;;3.08;1.80;;;21.60;48.00;;;;;;4953826;29;20405;-59
2021/10/12 05:45:43;;;;;;;3.13;1.97;;;21.60;48.00;;;;;;4952907;28;20476;-60
2021/10/12 05:48:10;;;;;;;3.90;2.30;;;21.60;48.00;;;;;;4953262;29;20466;-60
2021/10/12 05:50:37;;;;;;;3.60;2.00;;;21.50;47.90;;;;;;4953744;29;20409;-59
2021/10/12 05:58:34;;;;;;;2.92;1.75;;;21.50;47.80;;;;;;4953591;28;20413;-59
2021/10/12 06:01:02;;;;;;;3.55;2.10;;;21.50;47.80;;;;;;4953441;29;20790;-59
2021/10/12 06:03:28;;;;;;;3.67;2.10;;;21.50;47.70;;;;;;4953570;29;20398;-59
2021/10/12 06:05:54;;;;;;;3.30;1.90;;;21.50;48.00;;;;;;4953139;29;20397;-60
2021/10/12 06:08:20;;;;;;;2.88;1.70;;;21.60;48.10;;;;;;4953372;29;20428;-59
2021/10/12 06:10:46;;;;;;;3.33;2.10;;;21.60;48.00;;;;;;4952978;28;20390;-59
2021/10/12 06:13:12;;;;;;;3.73;1.90;;;21.60;47.90;;;;;;4953483;29;21077;-59
2021/10/12 06:15:39;;;;;;;2.38;1.80;;;21.60;47.70;;;;;;4953516;28;20442;-60
2021/10/12 06:18:05;;;;;;;2.80;1.95;;;21.60;47.70;;;;;;4952947;29;20448;-59
2021/10/12 06:20:31;;;;;;;2.30;1.70;;;21.50;47.90;;;;;;4953378;28;20905;-59
2021/10/12 06:22:57;;;;;;;3.00;1.90;;;21.60;48.00;;;;;;4953686;29;20405;-59
2021/10/12 06:25:23;;;;;;;3.30;1.90;;;21.60;47.80;;;;;;4953298;29;20894;-59
2021/10/12 06:27:48;;;;;;;2.58;1.60;;;21.70;47.80;;;;;;4953066;29;20865;-59
2021/10/12 06:30:14;;;;;;;3.20;1.60;;;21.60;47.70;;;;;;4953321;28;20394;-60
2021/10/12 06:32:40;;;;;;;4.20;1.90;;;21.60;47.60;;;;;;4953251;28;20931;-59
2021/10/12 06:35:06;;;;;;;2.70;1.80;;;21.60;47.60;;;;;;4953190;29;20476;-59
2021/10/12 06:37:32;;;;;;;3.95;2.10;;;21.60;47.90;;;;;;4953296;29;20402;-59
2021/10/12 06:39:58;;;;;;;2.97;1.90;;;21.60;47.80;;;;;;4952705;28;20409;-59
2021/10/12 06:42:24;;;;;;;2.50;1.85;;;21.70;47.80;;;;;;4935978;29;20762;-59
2021/10/12 06:44:50;;;;;;;2.90;1.80;;;21.60;47.70;;;;;;4953042;29;20410;-59
2021/10/12 06:47:15;;;;;;;2.60;1.70;;;21.60;47.60;;;;;;4952735;28;20964;-59
2021/10/12 06:49:41;;;;;;;3.07;2.00;;;21.60;47.50;;;;;;4953174;29;20452;-59
2021/10/12 06:52:07;;;;;;;2.33;1.80;;;21.60;47.70;;;;;;4952580;28;20398;-59
2021/10/12 06:54:33;;;;;;;3.20;2.00;;;21.60;47.60;;;;;;4953116;29;20826;-59
2021/10/12 06:57:00;;;;;;;2.80;1.90;;;21.70;47.70;;;;;;4952992;29;20401;-59
2021/10/12 06:59:26;;;;;;;3.05;1.80;;;21.60;47.60;;;;;;4953043;29;20409;-60
2021/10/12 07:01:52;;;;;;;2.45;1.70;;;21.60;47.50;;;;;;4952503;29;20394;-60
2021/10/12 07:04:19;;;;;;;3.08;2.10;;;21.60;47.50;;;;;;4953007;29;20398;-59
2021/10/12 07:06:44;;;;;;;2.90;1.98;;;21.60;47.70;;;;;;4935740;29;20885;-60
2021/10/12 07:09:11;;;;;;;3.42;1.90;;;21.60;47.80;;;;;;4952844;29;20417;-59
2021/10/12 07:11:37;;;;;;;2.80;2.10;;;21.70;47.60;;;;;;4952985;29;20450;-59
2021/10/12 07:14:04;;;;;;;2.85;1.70;;;21.70;47.60;;;;;;4952471;28;20895;-60
2021/10/12 07:16:30;;;;;;;2.35;1.58;;;21.60;47.50;;;;;;4952870;29;20874;-59
2021/10/12 07:18:55;;;;;;;2.78;2.10;;;21.60;47.60;;;;;;4952277;29;20390;-59
2021/10/12 07:21:21;;;;;;;3.30;2.00;;;21.60;47.60;;;;;;4952412;29;20456;-59
2021/10/12 07:23:47;;;;;;;2.43;1.73;;;21.60;47.60;;;;;;4954707;28;20398;-59
2021/10/12 07:26:12;;;;;;;2.63;1.73;;;21.70;47.60;;;;;;4956011;28;20397;-59
2021/10/12 07:28:38;;;;;;;2.75;1.85;;;21.70;47.60;;;;;;4956018;28;20433;-59
2021/10/12 07:31:05;;;;;;;2.70;2.13;;;21.60;47.60;;;;;;4956137;29;20437;-59
2021/10/12 07:33:31;;;;;;;2.88;1.83;;;21.60;47.50;;;;;;4956121;28;20404;-59
2021/10/12 07:35:57;;;;;;;2.37;1.80;;;21.60;47.60;;;;;;4955654;28;20422;-59
2021/10/12 07:38:24;;;;;;;3.05;2.10;;;21.60;47.80;;;;;;4955975;28;20442;-59
2021/10/12 07:40:50;;;;;;;2.65;1.83;;;21.70;47.70;;;;;;4955993;29;20398;-59
2021/10/12 07:43:16;;;;;;;2.72;1.70;;;21.70;47.70;;;;;;4955712;28;20405;-59
2021/10/12 07:45:42;;;;;;;2.78;1.80;;;21.60;47.70;;;;;;4955741;28;20452;-59
2021/10/12 07:48:07;;;;;;;2.58;1.70;;;21.60;47.60;;;;;;4954993;28;20925;-59
2021/10/12 07:50:33;;;;;;;2.60;1.80;;;21.60;47.60;;;;;;4955782;28;20961;-60
2021/10/12 07:52:59;;;;;;;2.80;2.03;;;21.60;47.80;;;;;;4955689;28;20398;-59
2021/10/12 07:57:57;;;;;;;2.35;1.80;;;21.70;47.60;;;;;;4955330;29;20419;-59
2021/10/12 08:00:28;;;;;;;3.60;2.05;;;21.60;47.70;;;;;;4955656;29;20761;-59
2021/10/12 08:02:54;;;;;;;2.30;1.70;;;21.60;47.60;;;;;;4955577;29;20408;-59
2021/10/12 08:05:22;;;;;;;2.35;1.80;;;21.60;47.50;;;;;;4955458;28;20394;-59
2021/10/12 08:07:49;;;;;;;2.30;1.88;;;21.60;47.60;;;;;;4955393;28;20417;-60
2021/10/12 08:10:16;;;;;;;2.33;1.90;;;21.70;47.60;;;;;;4955172;28;20445;-60
2021/10/12 08:12:43;;;;;;;2.47;2.00;;;21.70;47.50;;;;;;4938219;29;20394;-60
2021/10/12 08:15:09;;;;;;;2.75;1.85;;;21.60;47.60;;;;;;4955255;28;20468;-59
2021/10/12 08:17:35;;;;;;;2.63;1.90;;;21.60;47.50;;;;;;4955536;29;20716;-59
2021/10/12 08:20:01;;;;;;;2.58;1.95;;;21.60;47.40;;;;;;4954759;28;20829;-59
2021/10/12 08:22:26;;;;;;;3.30;2.10;;;21.60;47.90;;;;;;4955298;28;20894;-59
2021/10/12 08:24:52;;;;;;;2.70;2.10;;;21.60;47.70;;;;;;4955192;29;20390;-59
2021/10/12 08:27:17;;;;;;;2.33;1.93;;;21.70;47.60;;;;;;4955004;29;20901;-59
2021/10/12 08:29:43;;;;;;;2.08;1.77;;;21.60;47.50;;;;;;4955149;29;20465;-60
2021/10/12 08:32:09;;;;;;;2.80;2.10;;;21.60;47.50;;;;;;4954612;29;20865;-59
2021/10/12 08:34:35;;;;;;;2.50;2.00;;;21.60;47.50;;;;;;4954644;28;20409;-59
2021/10/12 08:37:00;;;;;;;2.77;1.97;;;21.60;47.80;;;;;;4954850;28;20941;-59
2021/10/12 08:39:33;;;;;;;3.03;1.95;;;21.60;47.50;;;;;;4954968;29;20905;-60
2021/10/12 08:42:10;;;;;;;2.50;1.80;;;21.70;47.40;;;;;;4954431;29;20402;-61
2021/10/12 08:45:13;;;;;;;2.33;2.00;;;21.70;47.40;;;;;;4954688;28;20414;-59
2021/10/12 08:47:38;;;;;;;2.35;1.90;;;21.60;47.40;;;;;;4954658;29;20421;-59
2021/10/12 08:50:07;;;;;;;2.55;2.05;;;21.60;47.30;;;;;;4953333;29;20426;-59
2021/10/12 08:52:33;;;;;;;2.60;2.00;;;21.60;47.50;;;;;;4954028;29;20910;-59
2021/10/12 08:54:59;;;;;;;2.58;2.00;;;21.60;47.30;;;;;;4954377;28;20517;-59
2021/10/12 08:57:34;;;;;;;2.73;2.00;;;21.70;47.40;;;;;;4954426;29;20468;-59
2021/10/12 09:00:11;;;;;;;2.75;2.17;;;21.70;47.30;;;;;;4954035;29;20393;-59
2021/10/12 09:02:56;;;;;;;2.83;2.05;;;21.60;47.40;;;;;;4954340;29;20441;-59
2021/10/12 09:05:26;;;;;;;3.00;2.33;;;21.60;47.30;;;;;;4954425;29;20986;-59
2021/10/12 09:07:53;;;;;;;2.40;1.95;;;21.60;47.60;;;;;;4954297;28;20464;-59
2021/10/12 09:10:23;;;;;;;3.58;2.15;;;21.70;47.50;;;;;;4953854;29;20405;-59
2021/10/12 09:12:50;;;;;;;2.42;2.10;;;21.70;47.30;;;;;;4937059;29;20894;-59
2021/10/12 09:15:18;;;;;;;2.95;2.17;;;21.70;47.40;;;;;;4936996;29;20394;-62
2021/10/12 09:17:51;;;;;;;2.60;1.90;;;21.60;47.30;;;;;;4954199;29;20908;-60
2021/10/12 09:20:16;;;;;;;2.40;2.10;;;21.60;47.40;;;;;;4953764;29;20398;-60
2021/10/12 09:23:12;;;;;;;2.57;1.93;;;21.60;47.60;;;;;;4954137;28;20401;-59
2021/10/12 09:25:40;;;;;;;2.30;1.90;;;21.70;47.50;;;;;;4954108;29;20405;-60
2021/10/12 09:28:07;;;;;;;2.53;2.05;;;21.70;47.30;;;;;;4953483;29;20429;-66
2021/10/12 09:30:36;;;;;;;2.45;1.95;;;21.70;47.20;;;;;;4954173;29;20452;-60
2021/10/12 09:33:08;;;;;;;2.60;1.98;;;21.70;47.30;;;;;;4953928;29;20901;-59
2021/10/12 09:35:35;;;;;;;2.78;1.90;;;21.60;47.20;;;;;;4953905;29;20398;-60
2021/10/12 09:38:09;;;;;;;2.55;2.00;;;21.60;47.60;;;;;;4953425;29;20489;-65
2021/10/12 09:40:37;;;;;;;3.00;2.05;;;21.70;47.40;;;;;;4953923;29;20405;-59
2021/10/12 09:43:03;;;;;;;2.50;1.80;;;21.70;47.30;;;;;;4953784;29;20408;-60
2021/10/12 09:45:43;;;;;;;2.72;2.05;;;21.70;47.30;;;;;;4952862;28;20782;-60
2021/10/12 09:48:33;;;;;;;2.30;1.50;;;21.60;47.30;;;;;;4953156;29;20845;-60
2021/10/12 09:51:14;;;;;;;2.10;1.70;;;21.60;47.20;;;;;;4953319;29;20406;-60
2021/10/12 09:53:42;;;;;;;2.17;1.80;;;21.60;47.30;;;;;;4953525;28;20820;-66
2021/10/12 09:56:09;;;;;;;2.30;1.77;;;21.70;47.30;;;;;;4953074;29;20393;-60
2021/10/12 09:58:35;;;;;;;2.20;1.73;;;21.70;47.30;;;;;;4953609;29;20397;-59
2021/10/12 10:01:04;;;;;;;2.40;1.60;;;21.70;47.20;;;;;;4953578;29;20619;-59
2021/10/12 10:03:31;;;;;;;2.50;1.90;;;21.60;47.30;;;;;;4953573;29;20421;-60
2021/10/12 10:06:04;;;;;;;2.47;1.80;;;21.60;47.10;;;;;;4935958;29;20390;-59
2021/10/12 10:08:34;;;;;;;2.30;1.70;;;21.60;47.60;;;;;;4935710;29;20521;-59
2021/10/12 10:11:00;;;;;;;2.47;1.60;;;21.60;47.30;;;;;;4935504;29;20894;-59
2021/10/12 10:13:27;;;;;;;2.28;1.63;;;21.70;47.20;;;;;;4953277;29;20403;-59
2021/10/12 10:15:54;;;;;;;2.17;1.73;;;21.70;47.30;;;;;;4953464;29;20401;-59
2021/10/12 10:18:21;;;;;;;2.50;1.70;;;21.70;47.30;;;;;;4952695;29;20405;-60
2021/10/12 10:20:53;;;;;;;2.60;1.70;;;21.60;47.30;;;;;;4953432;29;20402;-63
2021/10/12 10:23:48;;;;;;;3.00;2.00;;;21.60;47.50;;;;;;4953302;29;20410;-60
2021/10/12 10:26:34;;;;;;;2.90;1.70;;;21.70;47.40;;;;;;4918086;29;20468;-59
2021/10/12 10:29:38;;;;;;;2.60;1.60;;;21.70;47.30;;;;;;4953012;29;20491;-59
2021/10/12 10:32:16;;;;;;;1.92;1.38;;;21.70;47.30;;;;;;4952820;29;20432;-59
2021/10/12 10:34:57;;;;;;;2.20;1.50;;;21.60;47.30;;;;;;4953329;29;20453;-59
2021/10/12 10:37:26;;;;;;;2.47;1.63;;;21.60;47.40;;;;;;4953204;29;20453;-59
2021/10/12 10:40:25;;;;;;;2.17;1.73;;;21.60;47.50;;;;;;4953259;28;20488;-59
2021/10/12 10:43:00;;;;;;;2.13;1.50;;;21.70;47.30;;;;;;4953240;29;20390;-60
2021/10/12 10:45:48;;;;;;;1.67;1.45;;;21.60;47.40;;;;;;4953117;28;20409;-60
2021/10/12 10:48:16;;;;;;;2.47;1.48;;;21.60;47.40;;;;;;4952602;29;20429;-59
2021/10/12 10:50:43;;;;;;;2.30;1.60;;;21.60;47.40;;;;;;4953105;29;20396;-59
2021/10/12 10:53:10;;;;;;;2.28;1.50;;;21.60;47.60;;;;;;4952773;29;20406;-59
2021/10/12 10:55:44;;;;;;;2.53;1.67;;;21.60;47.30;;;;;;4953047;28;20504;-59
2021/10/12 10:58:19;;;;;;;1.90;1.40;;;21.70;47.30;;;;;;4955387;28;20890;-60
2021/10/12 11:00:52;;;;;;;1.95;1.55;;;21.70;47.40;;;;;;4956724;28;20398;-59
2021/10/12 11:03:30;;;;;;;2.00;1.38;;;21.60;47.30;;;;;;4956594;29;20394;-59
2021/10/12 11:06:08;;;;;;;1.88;1.40;;;21.60;47.20;;;;;;4956496;28;20500;-59
2021/10/12 11:08:39;;;;;;;2.13;1.42;;;21.60;47.50;;;;;;4956570;29;20418;-59
2021/10/12 11:11:07;;;;;;;1.93;1.40;;;21.60;47.20;;;;;;4956552;29;20393;-67
2021/10/12 11:13:44;;;;;;;1.98;1.40;;;21.70;47.20;;;;;;4956609;28;20448;-59
2021/10/12 11:16:17;;;;;;;2.20;1.48;;;21.60;47.20;;;;;;4956021;29;20397;-59
2021/10/12 11:18:45;;;;;;;1.85;1.40;;;21.60;47.20;;;;;;4956431;29;20410;-60
2021/10/12 11:21:13;;;;;;;2.13;1.70;;;21.60;47.30;;;;;;4956108;29;20402;-60
2021/10/12 11:23:51;;;;;;;1.88;1.33;;;21.60;47.60;;;;;;4955760;29;20428;-59
2021/10/12 11:26:22;;;;;;;2.28;1.30;;;21.60;47.30;;;;;;4955276;29;20390;-59
2021/10/12 11:28:53;;;;;;;1.80;1.30;;;21.70;47.30;;;;;;4956201;29;20453;-59
2021/10/12 11:31:22;;;;;;;1.67;1.30;;;21.70;47.30;;;;;;4956105;28;20469;-59
2021/10/12 11:33:53;;;;;;;2.05;1.20;;;21.60;47.30;;;;;;4956122;29;20817;-62
2021/10/12 11:36:22;;;;;;;2.33;1.40;;;21.60;47.30;;;;;;4955411;29;20404;-59
2021/10/12 11:38:56;;;;;;;2.10;1.40;;;21.60;47.40;;;;;;4956027;29;20401;-59
2021/10/12 11:41:32;;;;;;;1.90;1.50;;;21.60;47.40;;;;;;4955972;28;20460;-59
2021/10/12 11:44:01;;;;;;;2.13;1.35;;;21.70;47.20;;;;;;4955748;29;20398;-60
2021/10/12 11:46:35;;;;;;;1.75;1.40;;;21.60;47.10;;;;;;4955551;29;20398;-60
2021/10/12 11:49:14;;;;;;;1.83;1.20;;;21.60;47.20;;;;;;4955640;29;20906;-59
2021/10/12 11:51:43;;;;;;;2.00;1.50;;;21.60;47.20;;;;;;4955804;29;20394;-59
2021/10/12 11:54:09;;;;;;;2.45;1.45;;;21.60;47.30;;;;;;4954910;29;20502;-60
2021/10/12 11:56:36;;;;;;;2.85;1.33;;;21.60;47.30;;;;;;4955768;29;20401;-59
2021/10/12 11:59:05;;;;;;;2.13;1.20;;;21.60;47.20;;;;;;4955671;29;20824;-59
2021/10/12 12:01:34;;;;;;;1.85;1.20;;;21.60;47.10;;;;;;4955618;29;20878;-59
2021/10/12 12:04:02;;;;;;;2.17;1.30;;;21.60;47.20;;;;;;4955742;28;20741;-59
2021/10/12 12:06:30;;;;;;;2.22;1.30;;;21.60;47.10;;;;;;4955320;29;20410;-59
2021/10/12 12:08:59;;;;;;;2.15;1.17;;;21.60;47.20;;;;;;4954465;28;20430;-61
2021/10/12 12:11:30;;;;;;;3.70;1.40;;;21.60;47.10;;;;;;4955235;29;20477;-64
2021/10/12 12:13:57;;;;;;;3.90;1.30;;;21.60;47.30;;;;;;4955418;29;20405;-69
2021/10/12 12:16:24;;;;;;;2.90;1.20;;;21.60;47.10;;;;;;4954871;29;20404;-63
2021/10/12 12:18:51;;;;;;;1.80;1.10;;;21.60;47.10;;;;;;4955363;28;20540;-70
2021/10/12 12:21:31;;;;;;;2.90;1.23;;;21.60;47.30;;;;;;4955232;28;20397;-73
2021/10/12 12:23:59;;;;;;;2.90;1.08;;;21.60;47.60;;;;;;4955137;28;20465;-70
2021/10/12 12:26:28;;;;;;;2.30;1.17;;;21.60;47.20;;;;;;4937520;29;20394;-71
2021/10/12 12:29:22;;;;;;;3.10;1.40;;;21.60;47.10;;;;;;4955162;29;20453;-71
2021/10/12 12:31:52;;;;;;;4.50;1.20;;;21.60;47.20;;;;;;4955136;29;20382;-62
2021/10/12 12:34:30;;;;;;;2.08;1.20;;;21.60;47.30;;;;;;4967311;28;20415;-61
2021/10/12 12:36:56;;;;;;;2.10;1.20;;;21.60;47.50;;;;;;4979425;28;20400;-68
2021/10/12 12:39:45;;;;;;;2.38;1.33;;;21.60;47.90;;;;;;4972628;28;20403;-69
2021/10/12 12:42:32;;;;;;;3.40;1.48;;;21.60;47.40;;;;;;4972052;28;20397;-70
2021/10/12 12:45:16;;;;;;;2.25;1.08;;;21.60;47.20;;;;;;4976854;28;20417;-60
2021/10/12 12:47:57;;;;;;;2.15;1.00;;;21.60;47.30;;;;;;4978452;28;20420;-59
2021/10/12 12:50:34;;;;;;;2.70;1.30;;;21.60;47.20;;;;;;4978267;28;20414;-60
2021/10/12 12:53:05;;;;;;;3.65;1.13;;;21.60;47.00;;;;;;4977740;28;20399;-59
2021/10/12 12:55:48;;;;;;;5.68;1.23;;;21.60;47.30;;;;;;4980262;28;20409;-59
2021/10/12 12:58:14;;;;;;;2.58;1.20;;;21.70;47.40;;;;;;4980993;28;20747;-60
2021/10/12 13:00:58;;;;;;;3.58;1.15;;;21.70;47.30;;;;;;4980167;28;20396;-60
2021/10/12 13:03:23;;;;;;;2.38;1.10;;;21.70;47.20;;;;;;4978614;28;20399;-63
2021/10/12 13:05:49;;;;;;;2.70;1.17;;;21.60;46.90;;;;;;4963136;28;20394;-60
2021/10/12 13:08:15;;;;;;;4.20;1.17;;;21.60;46.90;;;;;;4981498;28;21155;-60
2021/10/12 13:10:40;;;;;;;4.85;1.10;;;21.70;47.20;;;;;;4988248;28;20401;-59
2021/10/12 13:13:06;;;;;;;3.23;1.10;;;21.70;47.20;;;;;;4979893;28;20893;-60
2021/10/12 13:15:32;;;;;;;3.00;1.00;;;21.70;47.20;;;;;;4981661;28;20391;-60
2021/10/12 13:17:58;;;;;;;3.47;1.10;;;21.70;47.70;;;;;;4980638;28;20428;-60
2021/10/12 13:20:23;;;;;;;4.40;1.10;;;21.70;47.80;;;;;;4979729;28;20921;-60
2021/10/12 13:22:49;;;;;;;2.75;1.10;;;21.70;47.90;;;;;;4981498;28;20396;-60
2021/10/12 13:25:15;;;;;;;3.30;1.20;;;21.70;48.90;;;;;;4979808;28;20619;-60
2021/10/12 13:27:41;;;;;;;2.10;1.20;;;21.80;48.80;;;;;;4980229;28;20493;-63
2021/10/12 13:30:08;;;;;;;3.03;1.10;;;21.90;48.30;;;;;;4981010;28;20400;-59
2021/10/12 13:32:34;;;;;;;1.50;1.10;;;21.80;48.00;;;;;;4976951;28;20415;-62
2021/10/12 13:35:00;;;;;;;2.42;1.10;;;21.80;47.50;;;;;;4980147;28;20403;-60
2021/10/12 13:37:27;;;;;;;4.37;0.97;;;21.80;47.90;;;;;;4981076;28;20396;-60
2021/10/12 13:39:53;;;;;;;2.38;1.27;;;21.80;48.40;;;;;;4976863;28;20935;-67
2021/10/12 13:42:19;;;;;;;3.05;1.20;;;21.90;48.40;;;;;;4979795;28;20430;-60
2021/10/12 13:44:46;;;;;;;2.45;0.95;;;21.90;48.10;;;;;;4981311;28;20424;-59
2021/10/12 13:47:12;;;;;;;3.28;1.00;;;21.90;48.00;;;;;;4980389;28;20392;-59
2021/10/12 13:49:38;;;;;;;3.15;1.13;;;21.80;46.90;;;;;;4964391;28;20407;-59
2021/10/12 13:52:06;;;;;;;2.35;1.02;;;21.80;46.90;;;;;;4981205;28;20456;-63
2021/10/12 13:54:34;;;;;;;3.67;1.20;;;21.80;47.60;;;;;;4979920;28;20948;-60
2021/10/12 13:57:00;;;;;;;2.20;1.00;;;21.80;48.10;;;;;;4989021;28;20391;-60
2021/10/12 13:59:26;;;;;;;2.22;1.00;;;21.90;47.70;;;;;;4992284;28;20391;-61
2021/10/12 14:01:52;;;;;;;2.10;1.10;;;21.90;47.60;;;;;;4992080;28;20874;-62
2021/10/12 14:04:18;;;;;;;2.33;0.93;;;21.90;47.20;;;;;;4986431;28;20397;-60
2021/10/12 14:06:44;;;;;;;2.42;1.00;;;21.80;46.90;;;;;;4991101;28;20407;-60
2021/10/12 14:09:10;;;;;;;1.60;1.00;;;21.80;47.30;;;;;;4991026;28;20433;-62
2021/10/12 14:11:37;;;;;;;2.47;1.10;;;21.80;47.70;;;;;;4986683;28;20398;-60
2021/10/12 14:14:05;;;;;;;3.63;1.00;;;21.90;47.70;;;;;;4979519;28;20402;-67
2021/10/12 14:16:31;;;;;;;1.58;0.80;;;21.90;47.60;;;;;;4950964;28;20408;-65
2021/10/12 14:18:57;;;;;;;2.50;1.15;;;21.90;46.90;;;;;;4964441;28;20412;-62
2021/10/12 14:21:23;;;;;;;1.80;1.10;;;21.80;46.80;;;;;;4945243;28;20483;-62
2021/10/12 14:23:50;;;;;;;2.20;1.02;;;21.80;46.90;;;;;;4962661;28;20907;-62
2021/10/12 14:26:17;;;;;;;3.83;1.20;;;21.80;47.20;;;;;;4961557;28;20401;-61
2021/10/12 14:28:43;;;;;;;2.90;1.00;;;21.90;47.20;;;;;;4960663;28;20429;-60
2021/10/12 14:31:09;;;;;;;1.98;0.98;;;21.90;47.20;;;;;;4962431;28;20392;-60
2021/10/12 14:33:35;;;;;;;1.70;0.88;;;21.80;47.10;;;;;;4965343;28;20421;-60
2021/10/12 14:36:01;;;;;;;1.73;1.00;;;21.80;47.60;;;;;;4964816;28;20754;-60
2021/10/12 14:38:27;;;;;;;3.30;1.30;;;21.70;48.00;;;;;;4974657;28;20407;-60
2021/10/12 14:40:53;;;;;;;2.70;1.10;;;21.70;47.70;;;;;;4980166;28;20888;-61
2021/10/12 14:43:20;;;;;;;3.72;1.00;;;21.80;47.60;;;;;;4976854;28;20404;-60
2021/10/12 14:45:46;;;;;;;3.15;1.30;;;21.80;47.30;;;;;;4976139;28;20777;-60
2021/10/12 14:48:11;;;;;;;2.70;1.05;;;21.70;47.40;;;;;;4975957;28;20428;-60
2021/10/12 14:50:37;;;;;;;8.05;1.17;;;21.70;47.40;;;;;;4975808;28;20392;-60
2021/10/12 14:53:04;;;;;;;4.80;1.20;;;21.70;47.10;;;;;;4976107;28;20395;-62
2021/10/12 14:55:30;;;;;;;3.20;1.23;;;21.60;46.80;;;;;;4975902;28;20436;-60
2021/10/12 14:57:55;;;;;;;2.50;1.10;;;21.70;46.90;;;;;;4976074;28;20428;-60
2021/10/12 15:00:21;;;;;;;3.60;1.17;;;21.70;46.70;;;;;;4975563;28;20376;-60
2021/10/12 15:02:47;;;;;;;5.40;1.20;;;21.70;46.40;;;;;;4965260;28;21175;-60
2021/10/12 15:05:13;;;;;;;4.50;1.50;;;21.80;46.80;;;;;;4969523;28;20391;-60
2021/10/12 15:07:41;;;;;;;3.83;1.40;;;21.70;46.70;;;;;;4971559;28;20416;-60
2021/10/12 15:10:11;;;;;;;3.63;1.38;;;21.80;47.60;;;;;;4955283;28;20404;-60
2021/10/12 15:12:38;;;;;;;4.22;1.20;;;21.80;47.90;;;;;;4974872;28;20842;-59
2021/10/12 15:15:05;;;;;;;3.47;1.20;;;21.90;48.50;;;;;;4973994;28;20392;-61
2021/10/12 15:17:32;;;;;;;2.72;1.08;;;21.90;47.80;;;;;;4975383;28;20959;-62
2021/10/12 15:19:58;;;;;;;4.15;1.10;;;21.90;47.70;;;;;;4974681;28;20407;-60
2021/10/12 15:22:23;;;;;;;2.05;1.00;;;21.90;47.60;;;;;;4954570;28;20483;-60
2021/10/12 15:24:49;;;;;;;3.20;1.23;;;21.80;47.90;;;;;;4975541;28;20427;-62
2021/10/12 15:27:14;;;;;;;5.70;1.17;;;21.90;48.80;;;;;;4975488;28;20397;-67
2021/10/12 15:29:40;;;;;;;3.90;1.10;;;22.00;48.60;;;;;;4975982;28;20424;-59
2021/10/12 15:32:07;;;;;;;4.30;1.20;;;22.10;47.90;;;;;;4975608;28;20415;-60
2021/10/12 15:34:33;;;;;;;3.92;1.20;;;22.00;47.70;;;;;;4975138;28;20475;-60
2021/10/12 15:36:59;;;;;;;2.08;1.15;;;22.00;47.90;;;;;;4975635;28;20428;-60
2021/10/12 15:39:27;;;;;;;5.63;1.40;;;22.00;47.90;;;;;;4975310;28;20884;-60
2021/10/12 15:41:58;;;;;;;4.35;1.25;;;22.00;48.10;;;;;;4957951;28;20392;-60
2021/10/12 15:44:26;;;;;;;3.83;0.95;;;22.10;48.90;;;;;;4973544;28;20416;-59
2021/10/12 15:46:52;;;;;;;3.72;1.30;;;22.10;47.90;;;;;;4975204;28;20423;-60
2021/10/12 15:49:20;;;;;;;3.70;1.10;;;22.10;47.40;;;;;;4975055;28;20415;-61
2021/10/12 15:51:49;;;;;;;4.17;1.00;;;22.10;47.60;;;;;;4975567;28;20486;-61
2021/10/12 15:54:14;;;;;;;3.35;1.00;;;22.00;48.10;;;;;;4974792;28;20442;-60
2021/10/12 15:56:40;;;;;;;5.13;1.40;;;22.00;48.80;;;;;;4974581;28;20428;-59
2021/10/12 15:59:06;;;;;;;4.82;1.20;;;22.10;48.50;;;;;;4957701;28;20404;-60
2021/10/12 16:01:32;;;;;;;2.17;1.20;;;22.10;48.00;;;;;;4975283;28;20384;-60
2021/10/12 16:03:58;;;;;;;3.53;1.15;;;22.10;47.30;;;;;;4974908;28;20465;-60
2021/10/12 16:06:24;;;;;;;4.17;1.20;;;22.20;47.50;;;;;;4974665;28;20435;-60
2021/10/12 16:08:51;;;;;;;2.17;1.05;;;22.10;47.60;;;;;;4974693;28;20423;-60
2021/10/12 16:11:17;;;;;;;4.55;1.33;;;22.10;47.80;;;;;;4974648;28;20403;-62
2021/10/12 16:13:44;;;;;;;5.22;1.45;;;22.20;47.90;;;;;;4974769;28;20436;-60
2021/10/12 16:19:10;;;;;;;2.28;1.13;;;22.20;47.90;;;;;;4951832;28;20396;-60
2021/10/12 16:24:04;;;;;;;3.38;1.20;;;22.10;47.60;;;;;;4974665;28;20495;-62
2021/10/12 16:26:38;;;;;;;3.42;1.08;;;22.10;48.50;;;;;;4974099;28;20396;-62
2021/10/12 16:29:06;;;;;;;2.72;1.00;;;22.20;48.70;;;;;;4974310;28;20420;-60
2021/10/12 16:31:34;;;;;;;3.08;1.20;;;22.20;48.20;;;;;;4974378;28;20477;-60
2021/10/12 16:34:03;;;;;;;5.90;1.33;;;22.20;48.00;;;;;;4974401;28;20760;-60
2021/10/12 16:36:30;;;;;;;3.88;1.50;;;22.10;48.60;;;;;;4973689;28;20713;-60
2021/10/12 16:38:55;;;;;;;5.73;1.47;;;22.10;48.90;;;;;;4972717;28;20435;-60
2021/10/12 16:41:21;;;;;;;7.07;1.90;;;22.10;50.40;;;;;;4972519;28;20436;-60
2021/10/12 16:43:47;;;;;;;4.60;1.70;;;22.10;49.70;;;;;;4972930;28;20979;-60
2021/10/12 16:46:14;;;;;;;8.10;1.50;;;22.10;48.60;;;;;;4972646;28;21054;-61
2021/10/12 16:48:40;;;;;;;8.80;1.90;;;22.10;48.90;;;;;;4972261;28;20434;-60
2021/10/12 16:51:06;;;;;;;7.30;1.77;;;22.10;49.30;;;;;;4970481;28;20806;-60